createdAt,value
2018-08-03T00:01:28.359Z,3.98
2018-08-03T00:04:03.471Z,3.20
2018-08-03T00:06:37.702Z,3.77
2018-08-03T00:09:12.395Z,3.62
2018-08-03T00:11:48.134Z,4.20
2018-08-03T00:14:22.892Z,3.50
2018-08-03T00:16:57.818Z,3.83
2018-08-03T00:19:53.345Z,3.67
2018-08-03T00:22:37.329Z,4.28
2018-08-03T00:25:12.164Z,4.85
2018-08-03T00:27:47.899Z,3.70
2018-08-03T00:30:23.623Z,4.55
2018-08-03T00:32:58.368Z,5.12
2018-08-03T00:35:33.116Z,5.12
2018-08-03T00:38:07.896Z,5.00
2018-08-03T00:40:42.584Z,5.25
2018-08-03T00:43:17.305Z,6.17
2018-08-03T00:45:52.048Z,5.85
2018-08-03T00:48:26.795Z,5.75
2018-08-03T00:51:01.503Z,4.55
2018-08-03T00:53:36.223Z,5.37
2018-08-03T00:56:10.935Z,5.03
2018-08-03T00:58:46.738Z,5.65
2018-08-03T01:01:21.559Z,5.55
2018-08-03T01:03:56.305Z,6.10
2018-08-03T01:06:32.014Z,6.40
2018-08-03T01:09:09.739Z,6.20
2018-08-03T01:11:44.451Z,5.92
2018-08-03T01:14:19.210Z,6.53
2018-08-03T01:16:53.889Z,6.50
2018-08-03T01:19:28.151Z,6.90
2018-08-03T01:22:02.855Z,6.22
2018-08-03T01:24:37.673Z,6.33
2018-08-03T01:27:12.440Z,7.20
2018-08-03T01:29:47.139Z,7.28
2018-08-03T01:32:21.887Z,6.92
2018-08-03T01:34:56.597Z,7.33
2018-08-03T01:37:31.331Z,6.12
2018-08-03T01:40:07.380Z,7.35
2018-08-03T01:42:42.100Z,7.08
2018-08-03T01:45:16.813Z,6.80
2018-08-03T01:47:51.667Z,6.78
2018-08-03T01:50:26.430Z,6.83
2018-08-03T01:53:01.170Z,6.55
2018-08-03T01:55:36.134Z,6.53
2018-08-03T01:58:10.846Z,6.87
2018-08-03T02:00:45.610Z,6.55
2018-08-03T02:03:20.394Z,6.97
2018-08-03T02:05:55.360Z,6.62
2018-08-03T02:08:30.110Z,6.20
2018-08-03T02:11:04.818Z,5.75
2018-08-03T02:13:39.514Z,6.55
2018-08-03T02:16:14.219Z,7.55
2018-08-03T02:18:48.971Z,7.08
2018-08-03T02:21:23.707Z,6.87
2018-08-03T02:23:58.433Z,7.40
2018-08-03T02:26:33.170Z,7.42
2018-08-03T02:29:07.918Z,7.37
2018-08-03T02:31:42.626Z,6.08
2018-08-03T02:34:17.386Z,6.35
2018-08-03T02:36:52.098Z,5.67
2018-08-03T02:39:26.872Z,5.62
2018-08-03T02:42:01.112Z,5.12
2018-08-03T02:44:35.900Z,6.22
2018-08-03T02:47:11.130Z,5.30
2018-08-03T02:49:45.873Z,5.67
2018-08-03T02:52:20.572Z,4.62
2018-08-03T02:54:55.423Z,5.72
2018-08-03T02:57:29.623Z,5.22
2018-08-03T03:00:05.110Z,5.03
2018-08-03T03:02:39.951Z,5.20
2018-08-03T03:05:14.731Z,5.12
2018-08-03T03:07:48.941Z,4.95
2018-08-03T03:10:28.565Z,4.95
2018-08-03T03:13:03.435Z,5.40
2018-08-03T03:15:38.207Z,5.35
2018-08-03T03:18:12.910Z,5.40
2018-08-03T03:20:47.589Z,5.20
2018-08-03T03:23:22.820Z,5.25
2018-08-03T03:25:57.486Z,6.03
2018-08-03T03:28:32.217Z,6.00
2018-08-03T03:31:06.947Z,5.62
2018-08-03T03:33:41.675Z,4.70
2018-08-03T03:36:16.368Z,6.08
2018-08-03T03:38:51.121Z,6.22
2018-08-03T03:41:25.810Z,6.33
2018-08-03T03:44:00.525Z,6.03
2018-08-03T03:46:34.926Z,6.42
2018-08-03T03:49:10.696Z,5.87
2018-08-03T03:51:45.351Z,5.92
2018-08-03T03:54:21.118Z,6.10
2018-08-03T03:56:55.824Z,6.42
2018-08-03T03:59:30.571Z,5.80
2018-08-03T04:02:05.654Z,6.22
2018-08-03T04:04:41.411Z,6.95
2018-08-03T04:07:17.115Z,6.17
2018-08-03T04:09:51.836Z,8.30
2018-08-03T04:12:26.528Z,9.35
2018-08-03T04:15:02.420Z,6.28
2018-08-03T04:17:37.099Z,6.78
2018-08-03T04:20:11.809Z,6.35
2018-08-03T04:22:46.524Z,7.05
2018-08-03T04:25:21.260Z,6.80
2018-08-03T04:27:55.477Z,7.15
2018-08-03T04:30:29.740Z,7.42
2018-08-03T04:33:04.467Z,7.03
2018-08-03T04:35:39.576Z,7.10
2018-08-03T04:38:14.283Z,6.72
2018-08-03T04:40:49.265Z,6.87
2018-08-03T04:43:24.175Z,10.93
2018-08-03T04:45:58.954Z,10.03
2018-08-03T04:48:33.722Z,9.95
2018-08-03T04:51:08.626Z,8.63
2018-08-03T04:53:44.373Z,7.20
2018-08-03T04:56:20.111Z,7.87
2018-08-03T04:58:54.775Z,5.33
2018-08-03T05:01:29.010Z,6.17
2018-08-03T05:04:21.625Z,5.95
2018-08-03T05:07:03.949Z,6.12
2018-08-03T05:09:50.378Z,6.37
2018-08-03T05:15:24.964Z,6.30
2018-08-03T05:18:14.048Z,7.10
2018-08-03T05:20:49.652Z,6.03
2018-08-03T05:23:23.890Z,5.92
2018-08-03T05:25:58.267Z,6.50
2018-08-03T05:28:32.734Z,6.70
2018-08-03T05:31:07.770Z,5.97
2018-08-03T05:33:42.239Z,6.93
2018-08-03T05:36:16.675Z,6.67
2018-08-03T05:38:51.555Z,5.40
2018-08-03T05:41:25.987Z,6.33
2018-08-03T05:44:00.411Z,6.17
2018-08-03T05:46:35.544Z,5.43
2018-08-03T05:49:10.983Z,5.43
2018-08-03T05:51:45.398Z,5.40
2018-08-03T05:54:19.830Z,4.47
2018-08-03T05:56:54.262Z,4.73
2018-08-03T05:59:28.747Z,4.77
2018-08-03T06:02:04.210Z,4.23
2018-08-03T06:04:38.695Z,4.70
2018-08-03T06:07:12.623Z,3.90
2018-08-03T06:09:48.144Z,3.90
2018-08-03T06:12:22.584Z,3.50
2018-08-03T06:14:57.116Z,3.37
2018-08-03T06:17:31.508Z,2.70
2018-08-03T06:20:07.429Z,3.50
2018-08-03T06:22:42.363Z,2.63
2018-08-03T06:25:17.849Z,2.87
2018-08-03T06:27:52.323Z,3.13
2018-08-03T06:30:27.804Z,4.07
2018-08-03T06:33:02.268Z,3.20
2018-08-03T06:35:36.683Z,3.47
2018-08-03T06:38:11.190Z,2.93
2018-08-03T06:40:45.711Z,2.60
2018-08-03T06:43:20.174Z,2.77
2018-08-03T06:45:54.652Z,3.10
2018-08-03T06:48:29.138Z,2.73
2018-08-03T06:51:03.683Z,2.80
2018-08-03T06:53:38.088Z,3.10
2018-08-03T06:56:12.484Z,2.80
2018-08-03T06:58:46.941Z,3.20
2018-08-03T07:01:22.350Z,3.07
2018-08-03T07:03:56.798Z,2.60
2018-08-03T07:06:31.228Z,2.30
2018-08-03T07:09:08.376Z,2.40
2018-08-03T07:11:42.759Z,2.17
2018-08-03T07:14:17.186Z,2.30
2018-08-03T07:16:51.675Z,2.07
2018-08-03T07:19:27.179Z,2.00
2018-08-03T07:22:02.623Z,1.93
2018-08-03T07:24:37.043Z,1.87
2018-08-03T07:27:11.479Z,1.80
2018-08-03T07:29:46.288Z,2.00
2018-08-03T07:32:21.779Z,1.90
2018-08-03T07:34:56.227Z,2.03
2018-08-03T07:37:30.655Z,1.70
2018-08-03T07:40:05.110Z,1.73
2018-08-03T07:42:39.563Z,1.83
2018-08-03T07:45:13.726Z,2.03
2018-08-03T07:47:48.141Z,1.70
2018-08-03T07:50:22.537Z,1.60
2018-08-03T07:52:56.966Z,2.03
2018-08-03T07:55:31.383Z,1.63
2018-08-03T07:58:05.907Z,1.90
2018-08-03T08:00:40.325Z,1.60
2018-08-03T08:03:14.836Z,1.73
2018-08-03T08:05:49.499Z,1.53
2018-08-03T08:08:23.924Z,1.40
2018-08-03T08:10:58.591Z,1.67
2018-08-03T08:13:33.018Z,1.60
2018-08-03T08:16:07.523Z,1.93
2018-08-03T08:18:41.461Z,1.50
2018-08-03T08:21:16.843Z,1.80
2018-08-03T08:23:51.328Z,1.70
2018-08-03T08:26:25.742Z,1.70
2018-08-03T08:29:00.195Z,1.90
2018-08-03T08:31:34.858Z,1.90
2018-08-03T08:34:09.427Z,1.80
2018-08-03T08:36:43.839Z,1.43
2018-08-03T08:39:18.278Z,1.70
2018-08-03T08:41:52.700Z,2.03
2018-08-03T08:44:27.122Z,2.33
2018-08-03T08:47:02.561Z,2.07
2018-08-03T08:49:37.960Z,2.33
2018-08-03T08:52:12.448Z,1.97
2018-08-03T08:54:46.385Z,2.00
2018-08-03T08:57:20.964Z,1.97
2018-08-03T08:59:55.319Z,2.43
2018-08-03T09:02:30.770Z,2.37
2018-08-03T09:05:05.264Z,2.40
2018-08-03T09:07:39.220Z,2.57
2018-08-03T09:10:13.839Z,1.90
2018-08-03T09:12:53.749Z,1.97
2018-08-03T09:15:44.881Z,1.90
2018-08-03T09:18:21.672Z,2.33
2018-08-03T09:20:56.272Z,1.77
2018-08-03T09:23:31.802Z,1.80
2018-08-03T09:26:05.734Z,1.70
2018-08-03T09:28:40.250Z,1.50
2018-08-03T09:31:15.012Z,1.90
2018-08-03T09:33:50.487Z,1.73
2018-08-03T09:36:24.437Z,2.07
2018-08-03T09:38:59.876Z,2.23
2018-08-03T09:41:35.962Z,2.17
2018-08-03T09:44:10.447Z,1.97
2018-08-03T09:46:45.383Z,1.73
2018-08-03T09:49:19.960Z,1.70
2018-08-03T09:51:54.615Z,1.77
2018-08-03T09:54:29.145Z,1.93
2018-08-03T09:57:04.115Z,1.70
2018-08-03T09:59:40.665Z,1.80
2018-08-03T10:02:15.207Z,2.00
2018-08-03T10:04:55.940Z,1.90
2018-08-03T10:07:31.716Z,2.30
2018-08-03T10:10:06.718Z,1.70
2018-08-03T10:12:41.192Z,1.50
2018-08-03T10:15:15.590Z,2.03
2018-08-03T10:17:50.048Z,2.20
2018-08-03T10:20:24.001Z,2.07
2018-08-03T10:22:58.758Z,2.10
2018-08-03T10:25:33.194Z,1.60
2018-08-03T10:28:07.621Z,1.83
2018-08-03T10:30:42.079Z,1.67
2018-08-03T10:33:17.495Z,1.90
2018-08-03T10:35:51.885Z,1.90
2018-08-03T10:38:27.335Z,2.23
2018-08-03T10:41:01.742Z,1.90
2018-08-03T10:43:36.232Z,2.07
2018-08-03T10:46:11.211Z,1.77
2018-08-03T10:48:54.184Z,1.90
2018-08-03T10:51:28.763Z,1.90
2018-08-03T10:54:03.378Z,1.33
2018-08-03T10:56:37.314Z,2.17
2018-08-03T10:59:12.764Z,1.90
2018-08-03T11:01:56.193Z,1.73
2018-08-03T11:04:30.730Z,1.83
2018-08-03T11:07:05.181Z,2.00
2018-08-03T11:09:39.594Z,1.93
2018-08-03T11:12:13.984Z,1.80
2018-08-03T11:14:48.423Z,2.00
2018-08-03T11:17:22.927Z,2.17
2018-08-03T11:19:57.365Z,1.90
2018-08-03T11:22:31.781Z,1.97
2018-08-03T11:25:06.894Z,1.93
2018-08-03T11:27:41.817Z,1.93
2018-08-03T11:30:17.573Z,2.23
2018-08-03T11:32:51.980Z,2.03
2018-08-03T11:35:26.438Z,2.30
2018-08-03T11:38:00.915Z,1.90
2018-08-03T11:40:35.351Z,2.17
2018-08-03T11:43:09.819Z,2.13
2018-08-03T11:45:44.263Z,2.27
2018-08-03T11:48:18.702Z,2.50
2018-08-03T11:50:53.379Z,2.27
2018-08-03T11:53:27.781Z,2.40
2018-08-03T11:56:02.196Z,2.17
2018-08-03T11:58:36.616Z,1.97
2018-08-03T12:01:11.048Z,1.70
2018-08-03T12:03:45.475Z,2.23
2018-08-03T12:06:19.909Z,1.97
2018-08-03T12:08:54.352Z,1.70
2018-08-03T12:11:28.776Z,2.10
2018-08-03T12:14:04.233Z,1.97
2018-08-03T12:16:38.614Z,2.33
2018-08-03T12:19:13.016Z,1.80
2018-08-03T12:21:48.460Z,1.90
2018-08-03T12:24:22.921Z,1.80
2018-08-03T12:26:57.323Z,2.30
2018-08-03T12:29:31.760Z,1.90
2018-08-03T12:32:06.432Z,1.73
2018-08-03T12:34:41.106Z,2.10
2018-08-03T12:37:15.514Z,1.93
2018-08-03T12:39:49.955Z,2.20
2018-08-03T12:42:23.922Z,2.10
2018-08-03T12:44:58.338Z,1.93
2018-08-03T12:47:32.730Z,1.80
2018-08-03T12:50:07.121Z,1.93
2018-08-03T12:52:41.774Z,2.00
2018-08-03T12:55:16.357Z,1.93
2018-08-03T12:57:52.801Z,2.00
2018-08-03T13:00:28.264Z,1.83
2018-08-03T13:03:02.684Z,2.07
2018-08-03T13:05:37.085Z,2.00
2018-08-03T13:08:12.696Z,2.10
2018-08-03T13:10:46.718Z,2.30
2018-08-03T13:13:21.204Z,2.00
2018-08-03T13:15:55.744Z,1.83
2018-08-03T13:18:30.163Z,2.07
2018-08-03T13:21:41.150Z,2.20
2018-08-03T13:24:15.133Z,2.20
2018-08-03T13:26:49.519Z,2.03
2018-08-03T13:29:25.499Z,2.23
2018-08-03T13:32:00.689Z,2.10
2018-08-03T13:34:35.842Z,2.30
2018-08-03T13:37:12.378Z,2.13
2018-08-03T13:39:47.218Z,2.20
2018-08-03T13:42:22.129Z,2.40
2018-08-03T13:45:06.863Z,1.70
2018-08-03T13:47:43.595Z,2.10
2018-08-03T13:50:18.683Z,2.50
2018-08-03T13:53:03.639Z,2.03
2018-08-03T14:01:44.152Z,2.40
2018-08-03T14:04:38.527Z,2.20
2018-08-03T14:07:34.579Z,2.17
2018-08-03T14:10:16.242Z,2.23
2018-08-03T14:16:11.502Z,2.20
2018-08-03T14:18:57.514Z,2.57
2018-08-03T14:21:43.618Z,2.20
2018-08-03T14:24:35.449Z,2.10
2018-08-03T14:27:22.768Z,2.37
2018-08-03T14:30:03.973Z,2.00
2018-08-03T14:32:48.208Z,2.20
2018-08-03T14:35:29.237Z,2.40
2018-08-03T14:38:08.726Z,2.27
2018-08-03T14:40:51.312Z,2.00
2018-08-03T14:43:39.392Z,2.10
2018-08-03T14:46:30.460Z,2.50
2018-08-03T14:52:30.347Z,2.50
2018-08-03T14:55:16.331Z,2.43
2018-08-03T14:57:55.680Z,2.53
2018-08-03T15:00:39.836Z,2.50
2018-08-03T15:03:30.131Z,2.17
2018-08-03T15:06:16.304Z,2.30
2018-08-03T15:08:56.474Z,2.33
2018-08-03T15:14:25.621Z,2.27
2018-08-03T15:17:11.260Z,2.40
2018-08-03T15:19:57.840Z,2.13
2018-08-03T15:22:43.483Z,2.50
2018-08-03T15:25:23.232Z,2.37
2018-08-03T15:28:11.317Z,2.40
2018-08-03T15:30:57.669Z,2.67
2018-08-03T15:33:49.849Z,2.30
2018-08-03T15:39:37.750Z,2.40
2018-08-03T15:42:27.071Z,2.57
2018-08-03T15:45:02.870Z,2.63
2018-08-03T15:47:39.236Z,2.20
2018-08-03T15:50:19.200Z,2.43
2018-08-03T15:52:54.331Z,2.37
2018-08-03T15:55:28.714Z,2.20
2018-08-03T15:58:03.174Z,2.40
2018-08-03T16:00:37.602Z,2.20
2018-08-03T16:03:12.048Z,1.97
2018-08-03T16:05:47.030Z,2.00
2018-08-03T16:08:21.553Z,2.20
2018-08-03T16:10:58.483Z,2.27
2018-08-03T16:13:32.429Z,2.33
2018-08-03T16:16:08.025Z,2.10
2018-08-03T16:18:42.630Z,2.20
2018-08-03T16:21:17.924Z,2.13
2018-08-03T16:23:53.759Z,2.33
2018-08-03T16:26:33.273Z,2.00
2018-08-03T16:29:07.729Z,2.70
2018-08-03T16:31:46.056Z,2.27
2018-08-03T16:34:23.159Z,2.30
2018-08-03T16:36:57.799Z,2.30
2018-08-03T16:39:32.212Z,2.60
2018-08-03T16:42:06.714Z,2.60
2018-08-03T16:44:42.140Z,2.87
2018-08-03T16:47:16.623Z,2.40
2018-08-03T16:49:51.095Z,2.20
2018-08-03T16:52:25.543Z,2.13
2018-08-03T16:54:59.986Z,2.33
2018-08-03T16:57:34.472Z,2.60
2018-08-03T17:00:09.879Z,2.00
2018-08-03T17:02:48.216Z,2.60
2018-08-03T17:05:25.956Z,2.20
2018-08-03T17:08:01.104Z,2.10
2018-08-03T17:10:36.556Z,2.23
2018-08-03T17:13:11.086Z,2.47
2018-08-03T17:15:53.885Z,2.63
2018-08-03T17:18:28.729Z,2.27
2018-08-03T17:21:04.291Z,2.47
2018-08-03T17:23:41.645Z,2.72
2018-08-03T17:26:18.293Z,2.30
2018-08-03T17:28:56.379Z,2.50
2018-08-03T17:31:31.104Z,2.70
2018-08-03T17:34:05.681Z,2.70
2018-08-03T17:36:40.162Z,2.80
2018-08-03T17:39:14.874Z,2.98
2018-08-03T17:41:49.599Z,2.30
2018-08-03T17:44:24.278Z,3.00
2018-08-03T17:46:58.728Z,2.57
2018-08-03T17:49:33.112Z,2.50
2018-08-03T17:52:08.948Z,2.70
2018-08-03T17:54:43.684Z,2.50
2018-08-03T17:57:18.344Z,2.87
2018-08-03T17:59:52.999Z,2.50
2018-08-03T18:02:28.297Z,2.92
2018-08-03T18:05:02.993Z,2.90
2018-08-03T18:07:37.345Z,2.83
2018-08-03T18:10:12.106Z,2.62
2018-08-03T18:12:46.881Z,3.22
2018-08-03T18:15:21.602Z,3.05
2018-08-03T18:17:56.481Z,2.62
2018-08-03T18:20:31.191Z,2.65
2018-08-03T18:23:06.095Z,2.98
2018-08-03T18:25:49.895Z,3.20
2018-08-03T18:28:24.982Z,3.30
2018-08-03T18:30:59.683Z,3.27
2018-08-03T18:33:34.448Z,2.80
2018-08-03T18:36:09.144Z,2.80
2018-08-03T18:38:43.911Z,3.00
2018-08-03T18:41:18.792Z,3.00
2018-08-03T18:43:53.552Z,3.02
2018-08-03T18:46:29.270Z,3.42
2018-08-03T18:49:04.069Z,3.22
2018-08-03T18:51:38.776Z,3.22
2018-08-03T18:54:13.558Z,3.33
2018-08-03T18:56:48.423Z,3.08
2018-08-03T18:59:24.172Z,2.90
2018-08-03T19:02:00.952Z,3.80
2018-08-03T19:04:45.310Z,5.62
2018-08-03T19:07:22.614Z,4.30
2018-08-03T19:09:58.445Z,4.25
2018-08-03T19:12:33.132Z,4.10
2018-08-03T19:15:08.322Z,4.08
2018-08-03T19:17:43.056Z,3.92
2018-08-03T19:20:17.772Z,3.75
2018-08-03T19:22:52.479Z,3.05
2018-08-03T19:25:27.150Z,3.62
2018-08-03T19:28:01.942Z,3.70
2018-08-03T19:30:36.751Z,5.60
2018-08-03T19:33:11.592Z,7.05
2018-08-03T19:35:46.362Z,9.28
2018-08-03T19:38:22.826Z,6.20
2018-08-03T19:40:57.572Z,4.80
2018-08-03T19:43:33.320Z,4.37
2018-08-03T19:46:08.067Z,4.12
2018-08-03T19:48:42.808Z,3.80
2018-08-03T19:51:17.543Z,3.45
2018-08-03T19:53:52.225Z,3.87
2018-08-03T19:56:28.006Z,4.37
2018-08-03T19:59:02.778Z,4.90
2018-08-03T20:01:37.634Z,3.83
2018-08-03T20:04:20.214Z,4.03
2018-08-03T20:06:54.505Z,4.30
2018-08-03T20:09:29.253Z,4.03
2018-08-03T20:12:03.982Z,4.10
2018-08-03T20:14:38.227Z,4.35
2018-08-03T20:17:12.928Z,4.40
2018-08-03T20:19:47.156Z,4.10
2018-08-03T20:22:21.938Z,4.42
2018-08-03T20:24:56.637Z,4.10
2018-08-03T20:27:32.383Z,3.98
2018-08-03T20:30:07.920Z,4.35
2018-08-03T20:32:43.013Z,4.30
2018-08-03T20:35:17.818Z,4.35
2018-08-03T20:37:52.602Z,4.50
2018-08-03T20:40:27.316Z,4.67
2018-08-03T20:43:02.048Z,4.17
2018-08-03T20:45:38.136Z,4.65
2018-08-03T20:48:13.010Z,4.60
2018-08-03T20:50:53.323Z,4.40
2018-08-03T20:53:45.245Z,5.92
2018-08-03T20:56:41.546Z,6.30
2018-08-03T21:02:52.565Z,7.55
2018-08-03T21:05:34.408Z,7.28
2018-08-03T21:08:28.156Z,7.92
2018-08-03T21:11:14.101Z,8.88
2018-08-03T21:13:56.943Z,8.43
2018-08-03T21:16:35.404Z,9.10
2018-08-03T21:19:17.056Z,8.55
2018-08-03T21:28:00.363Z,6.78
2018-08-03T21:33:42.145Z,7.30
2018-08-03T21:36:32.327Z,7.87
2018-08-03T21:39:28.090Z,7.22
2018-08-03T21:42:14.059Z,7.28
2018-08-03T21:48:01.910Z,7.75
2018-08-03T21:50:39.992Z,7.53
2018-08-03T21:53:17.781Z,7.40
2018-08-03T21:55:56.006Z,7.95
2018-08-03T21:58:42.421Z,7.12
2018-08-03T22:01:24.535Z,6.72
2018-08-03T22:04:00.009Z,7.67
2018-08-03T22:06:37.973Z,7.30
2018-08-03T22:09:31.481Z,6.92
2018-08-03T22:12:09.463Z,7.90
2018-08-03T22:17:41.022Z,7.10
2018-08-03T22:20:33.066Z,7.08
2018-08-03T22:23:11.498Z,6.65
2018-08-03T22:25:46.210Z,6.42
2018-08-03T22:28:26.666Z,6.87
2018-08-03T22:31:01.673Z,7.10
2018-08-03T22:33:37.815Z,7.58
2018-08-03T22:36:12.800Z,6.80
2018-08-03T22:38:49.703Z,7.03
2018-08-03T22:41:26.193Z,6.78
2018-08-03T22:44:01.372Z,7.30
2018-08-03T22:46:38.734Z,6.95
2018-08-03T22:49:13.417Z,6.85
2018-08-03T22:51:48.165Z,7.05
2018-08-03T22:54:23.152Z,7.10
2018-08-03T22:56:58.234Z,6.53
2018-08-03T22:59:32.923Z,7.47
2018-08-03T23:02:08.817Z,7.80
2018-08-03T23:04:43.549Z,7.67
2018-08-03T23:07:17.811Z,7.70
2018-08-03T23:09:52.565Z,7.78
2018-08-03T23:12:27.296Z,8.03
2018-08-03T23:15:02.020Z,8.20
2018-08-03T23:17:37.010Z,6.83
2018-08-03T23:20:11.753Z,7.97
2018-08-03T23:22:46.123Z,8.30
2018-08-03T23:25:20.469Z,7.55
2018-08-03T23:27:55.224Z,8.75
2018-08-03T23:30:31.035Z,10.03
2018-08-03T23:33:05.924Z,11.18
2018-08-03T23:35:40.621Z,9.00
2018-08-03T23:38:15.383Z,8.75
2018-08-03T23:40:50.159Z,8.43
2018-08-03T23:43:24.943Z,9.85
2018-08-03T23:46:00.626Z,8.93
2018-08-03T23:48:35.343Z,8.80
2018-08-03T23:51:10.047Z,8.65
2018-08-03T23:53:44.863Z,11.33
2018-08-03T23:56:20.637Z,9.58
2018-08-03T23:58:55.387Z,9.90
